• Join FlightAware (Why Join?)
  • Login
  • US Flag 
 
07:43PM EST


 

Airport Tracker/Info


-or-


 

Live Flight TrackerFlight Track Log ✈ EJM198 ✈ 12-Apr-2014 ✈ KHPN - KLAX

Flight Track Log - Related Links

Times and Time Zones

All times are in EDT time to prevent confusion due to time zone crossing. See the EJM198 flight status page for this flight to view local times or setup timezone preferences in your user account.

Time Position Orientation Groundspeed Altitude Reporting Facility
EDT Latitude Longitude Course Direction KTS MPH feet Rate Location/Type
07:11AM 41.1000 -73.7833 236° Southwest 189 217 2,700  Level New York TRACON
07:12AM 41.0667 -73.8500 236° Southwest 247 284 5,400 2,880 Climbing New York TRACON
07:13AM 41.0167 -73.9167 225° Southwest 263 303 8,500 2,760 Climbing New York TRACON
07:14AM 40.9667 -73.9833 225° Southwest 270 311 10,700 2,340 Climbing New York TRACON
07:15AM 40.9500 -74.0833 258° West 268 308 13,200 1,320 Climbing New York TRACON
07:17AM 40.9161 -74.3325 260° West 332 382 15,200 900 Climbing New York Center
07:18AM 40.8981 -74.4525 259° West 369 425 16,300 1,260 Climbing New York Center
07:24AM 40.6892 -75.2653 251° West 362 417 24,300 1,320 Climbing FlightAware ADS-B (KPHL)
07:25AM 40.6723 -75.3269 250° West 358 412 25,000 1,140 Climbing FlightAware ADS-B (KPHL)
07:25AM 40.6544 -75.3927 250° West 361 415 25,600 960 Climbing FlightAware ADS-B (KPHL)
07:26AM 40.6305 -75.4802 250° West 366 421 26,200 1,320 Climbing FlightAware ADS-B (KPHL)
07:27AM 40.6040 -75.5736 250° West 357 411 27,500 1,500 Climbing FlightAware ADS-B (KPHL)
07:27AM 40.5808 -75.6545 249° West 359 413 28,400 1,260 Climbing FlightAware ADS-B (KPHL)
07:28AM 40.5602 -75.7286 250° West 358 412 29,100 1,140 Climbing FlightAware ADS-B (KPHL)
07:29AM 40.5446 -75.7848 250° West 362 417 29,800 1,080 Climbing FlightAware ADS-B
07:29AM 40.5179 -75.8797 250° West 362 417 30,500 1,140 Climbing FlightAware ADS-B (KPHL)
07:30AM 40.4998 -75.9429 250° West 365 420 31,100 1,200 Climbing FlightAware ADS-B (KPHL)
07:31AM 40.4737 -76.0359 249° West 366 421 32,000 1,320 Climbing FlightAware ADS-B (KPHL)
07:31AM 40.4557 -76.0982 249° West 359 413 32,800 1,680 Climbing FlightAware ADS-B (KPHL)
07:31AM 40.4450 -76.1370 250° West 353 406 33,400 1,740 Climbing FlightAware ADS-B (VOML / IXE)
07:32AM 40.4394 -76.1555 249° West 348 400 33,700 1,500 Climbing FlightAware ADS-B (KPHL)
07:32AM 40.4240 -76.2080 250° West 346 398 34,300 960 Climbing FlightAware ADS-B (VOML / IXE)
07:33AM 40.3970 -76.3051 250° West 349 402 34,900 780 Climbing FlightAware ADS-B (KPHL)
07:33AM 40.3950 -76.3130 250° West 349 402 35,000 780 Climbing FlightAware ADS-B (VOML / IXE)
07:33AM 40.3802 -76.3638 250° West 349 402 35,300 720 Climbing FlightAware ADS-B (KPHL)
07:33AM 40.3760 -76.3770 250° West 350 403 35,400 720 Climbing FlightAware ADS-B (VOML / IXE)
07:34AM 40.3637 -76.4199 249° West 351 404 35,700 660 Climbing FlightAware ADS-B (KPHL)
07:34AM 40.3560 -76.4490 250° West 351 404 35,800 420 Climbing FlightAware ADS-B (VOML / IXE)
07:34AM 40.3577 -76.4410 250° West 351 404 35,800 660 Level FlightAware ADS-B (KAPG)
07:34AM 40.3460 -76.4820 253° West 353 406 36,000 180 Climbing FlightAware ADS-B (VOML / IXE)
07:35AM 40.3409 -76.5130 264° West 355 409 35,900  Descending FlightAware ADS-B (KPHL)
07:35AM 40.3394 -76.5550 265° West 356 410 36,000 60 Climbing FlightAware ADS-B
07:35AM 40.3408 -76.6251 273° West 370 426 36,000  Level FlightAware ADS-B
07:35AM 40.3409 -76.6310 272° West 368 423 36,000  Level FlightAware ADS-B (KAPG)
07:36AM 40.3432 -76.7009 272° West 378 435 36,000  Level FlightAware ADS-B (KPHL)
07:37AM 40.3444 -76.7540 272° West 385 443 36,000  Level FlightAware ADS-B (KPHL)
07:37AM 40.3463 -76.8627 271° West 389 448 36,000  Level FlightAware ADS-B (KAPG)
07:38AM 40.3480 -76.9599 271° West 394 453 36,000  Level FlightAware ADS-B (KPHL)
07:39AM 40.3507 -77.1521 271° West 399 459 36,000  Level FlightAware ADS-B (KPHL)
07:40AM 40.3528 -77.3166 271° West 402 463 36,000  Level FlightAware ADS-B (KPHL)
07:41AM 40.3572 -77.4167 271° West 401 461 36,000  Level Cleveland Center
07:42AM 40.3597 -77.5619 271° West 401 461 36,000 180 Level Cleveland Center
07:43AM 40.3622 -77.7064 271° West 401 461 36,400 480 Climbing Cleveland Center
07:44AM 40.3625 -77.8472 270° West 393 452 37,000 480 Climbing Cleveland Center
07:45AM 40.3644 -77.9861 271° West 388 447 37,500 480 Climbing Cleveland Center
07:46AM 40.3661 -78.1225 271° West 381 438 38,000 240 Climbing Cleveland Center
07:47AM 40.3667 -78.2592 270° West 379 436 38,000  Level Cleveland Center
07:48AM 40.3672 -78.3986 270° West 379 436 38,000  Level Cleveland Center
07:49AM 40.3686 -78.5658 271° West 381 438 38,000  Level Cleveland Center
07:50AM 40.3692 -78.7056 270° West 381 438 38,000  Level Cleveland Center
07:51AM 40.3697 -78.8464 270° West 382 440 38,000  Level Cleveland Center
07:52AM 40.3692 -78.9878 270° West 386 444 38,000  Level Cleveland Center
07:53AM 40.3697 -79.1294 270° West 386 444 38,000  Level Cleveland Center
07:54AM 40.3694 -79.2706 270° West 387 445 38,000  Level Cleveland Center
07:55AM 40.3692 -79.4261 270° West 390 449 38,000  Level Cleveland Center
07:56AM 40.3678 -79.5678 269° West 390 449 38,000  Level Cleveland Center
07:57AM 40.3667 -79.7081 269° West 389 448 38,000  Level Cleveland Center
07:58AM 40.3653 -79.8486 269° West 387 445 38,000  Level Cleveland Center
07:59AM 40.3639 -79.9883 269° West 386 444 38,000  Level Cleveland Center
08:00AM 40.3644 -80.1408 270° West 384 442 38,000  Level Cleveland Center
08:01AM 40.3628 -80.2814 269° West 384 442 38,000  Level Cleveland Center
08:03AM 40.3606 -80.4206 269° West 384 442 38,000  Level Cleveland Center
08:09AM 40.3430 -81.2924 269° West 370 426 38,000  Level FlightAware ADS-B
08:10AM 40.3401 -81.4573 269° West 369 425 38,000  Level FlightAware ADS-B
08:11AM 40.3377 -81.5888 269° West 369 425 38,000  Level FlightAware ADS-B
08:12AM 40.3353 -81.7117 268° West 369 425 38,000  Level FlightAware ADS-B
08:12AM 40.3336 -81.7904 268° West 369 425 38,000  Level FlightAware ADS-B
08:13AM 40.3314 -81.8814 268° West 369 425 38,000  Level Indianapolis Center
08:14AM 40.3286 -82.0164 268° West 369 425 38,000  Level Indianapolis Center
08:15AM 40.3247 -82.1528 268° West 369 425 38,000  Level Indianapolis Center
08:16AM 40.3214 -82.2881 268° West 369 425 38,000  Level Indianapolis Center
08:17AM 40.3167 -82.4239 267° West 369 425 38,000  Level Indianapolis Center
08:18AM 40.3125 -82.5592 268° West 369 425 38,000  Level Indianapolis Center
08:19AM 40.3089 -82.6978 268° West 371 427 38,000  Level Indianapolis Center
08:20AM 40.3042 -82.8369 267° West 371 427 38,000  Level Indianapolis Center
08:21AM 40.2994 -82.9739 267° West 375 432 38,000  Level Indianapolis Center
08:23AM 40.2964 -83.1100 268° West 375 432 38,000  Level Indianapolis Center
08:24AM 40.2908 -83.2739 268° West 375 432 38,000  Level Indianapolis Center
08:25AM 40.2872 -83.4117 268° West 376 433 38,000  Level Indianapolis Center
08:30AM 40.2649 -84.1797 267° West 384 442 38,000  Level FlightAware ADS-B
08:31AM 40.2581 -84.2303 267° West 380 437 38,000  Level Kansas City Center
08:31AM 40.2536 -84.3278 267° West 382 440 38,000  Level Chicago Center
08:32AM 40.2500 -84.4025 266° West 382 440 38,000  Level Indianapolis Center
08:33AM 40.2442 -84.5417 267° West 384 442 38,000  Level Indianapolis Center
08:34AM 40.2378 -84.6817 267° West 384 442 38,000  Level Indianapolis Center
08:35AM 40.2319 -84.8214 267° West 385 443 38,000  Level Indianapolis Center
08:36AM 40.2250 -84.9719 267° West 385 443 38,000  Level Indianapolis Center
08:37AM 40.2189 -85.1117 267° West 385 443 38,000  Level Indianapolis Center
08:38AM 40.2114 -85.2522 266° West 386 444 38,000  Level Indianapolis Center
08:39AM 40.2053 -85.3917 267° West 386 444 38,000  Level Indianapolis Center
08:40AM 40.1972 -85.5336 266° West 389 448 38,000  Level Indianapolis Center
08:41AM 40.1908 -85.6736 267° West 389 448 38,000  Level Indianapolis Center
08:42AM 40.1819 -85.8394 266° West 387 445 38,000  Level Indianapolis Center
08:43AM 40.1736 -85.9767 265° West 385 443 38,000  Level Indianapolis Center
08:49AM 40.1354 -86.7524 265° West 373 429 38,000  Level FlightAware ADS-B (KMDW)
08:49AM 40.1284 -86.8621 265° West 373 429 38,000  Level FlightAware ADS-B (KMDW)
08:51AM 40.1117 -87.1133 265° West 374 430 38,000  Level FlightAware ADS-B (KMDW)
08:52AM 40.1054 -87.2090 265° West 374 430 38,000  Level FlightAware ADS-B (KMDW)
08:53AM 40.0997 -87.2917 265° West 375 432 38,000  Level FlightAware ADS-B (KMDW)
08:53AM 40.0930 -87.3881 265° West 376 433 38,000  Level FlightAware ADS-B (KMDW)
08:54AM 40.0865 -87.4793 265° West 377 434 38,000  Level FlightAware ADS-B (KMDW)
08:54AM 40.0817 -87.5486 265° West 377 434 38,000  Level FlightAware ADS-B (KMDW)
08:55AM 40.0733 -87.6667 265° West 377 434 38,000  Level FlightAware ADS-B (KMDW)
08:56AM 40.0618 -87.8248 265° West 378 435 38,000  Level FlightAware ADS-B (KMDW)
08:57AM 40.0555 -87.9103 265° West 379 436 38,000  Level FlightAware ADS-B (KMDW)
08:58AM 40.0488 -88.0002 264° West 380 437 38,000  Level FlightAware ADS-B (KMDW)
08:58AM 40.0415 -88.0946 264° West 380 437 38,000  Level FlightAware ADS-B (KMDW)
08:59AM 40.0364 -88.1639 264° West 381 438 38,000  Level FlightAware ADS-B (KMDW)
09:00AM 40.0278 -88.2740 264° West 382 440 38,000  Level FlightAware ADS-B (KMDW)
09:02AM 40.0031 -88.5886 264° West 385 443 38,000  Level FlightAware ADS-B (KMDW)
09:06AM 39.9629 -89.0793 264° West 390 449 38,000  Level FlightAware ADS-B (KMDW)
09:10AM 39.9099 -89.6933 263° West 394 453 38,000  Level FlightAware ADS-B (KPWK)
09:11AM 39.8983 -89.8258 263° West 396 456 38,000  Level Chicago Center
09:12AM 39.8839 -89.9683 263° West 395 455 38,000  Level Chicago Center
09:13AM 39.8694 -90.1375 264° West 392 451 38,000  Level Kansas City Center
09:14AM 39.8567 -90.2806 263° West 392 451 38,000  Level Kansas City Center
09:15AM 39.8442 -90.4242 264° West 392 451 38,000  Level Kansas City Center
09:16AM 39.8297 -90.5664 263° West 394 453 38,000  Level Kansas City Center
09:17AM 39.8161 -90.7092 263° West 394 453 38,000  Level Kansas City Center
09:18AM 39.8003 -90.8808 263° West 395 455 38,000  Level Kansas City Center
09:19AM 39.7861 -91.0056 262° West 395 455 38,000  Level Kansas City Center
09:21AM 39.7719 -91.1475 263° West 395 455 38,000  Level Kansas City Center
09:22AM 39.7569 -91.3106 263° West 398 458 38,000  Level Kansas City Center
09:23AM 39.7417 -91.4608 263° West 398 458 38,000  Level Kansas City Center
09:24AM 39.7267 -91.6031 262° West 398 458 38,000  Level Kansas City Center
09:25AM 39.7108 -91.7456 262° West 398 458 38,000  Level Kansas City Center
09:26AM 39.6944 -91.8897 262° West 399 459 38,000  Level Kansas City Center
09:27AM 39.6814 -92.0300 263° West 399 459 38,000  Level Kansas City Center
09:28AM 39.6661 -92.1692 262° West 394 453 38,000  Level Kansas City Center
09:29AM 39.6511 -92.3100 262° West 394 453 38,000  Level Kansas City Center
09:30AM 39.6350 -92.4508 262° West 394 453 38,000  Level Kansas City Center
09:31AM 39.6164 -92.6200 262° West 394 453 38,000  Level Kansas City Center
09:32AM 39.5997 -92.7600 261° West 397 457 38,000  Level Kansas City Center
09:37AM 39.5175 -93.5214 261° West 396 456 38,000  Level FlightAware ADS-B
09:38AM 39.5090 -93.5942 261° West 397 457 38,000  Level FlightAware ADS-B
09:38AM 39.5006 -93.6647 261° West 398 458 38,000  Level FlightAware ADS-B
09:39AM 39.4921 -93.7359 261° West 399 459 38,000  Level FlightAware ADS-B
09:39AM 39.4836 -93.8073 261° West 400 460 38,000  Level FlightAware ADS-B
09:40AM 39.4749 -93.8790 261° West 400 460 38,000  Level FlightAware ADS-B
09:40AM 39.4663 -93.9503 261° West 401 461 38,000  Level FlightAware ADS-B
09:41AM 39.4572 -94.0239 261° West 401 461 38,000  Level FlightAware ADS-B
09:41AM 39.4484 -94.0955 261° West 402 463 38,000  Level FlightAware ADS-B
09:42AM 39.4383 -94.1783 261° West 403 464 38,000  Level FlightAware ADS-B
09:42AM 39.4292 -94.2522 261° West 404 465 38,000  Level FlightAware ADS-B
09:43AM 39.4177 -94.3441 261° West 404 465 38,000  Level FlightAware ADS-B
09:43AM 39.4086 -94.4163 261° West 404 465 38,000  Level FlightAware ADS-B
09:44AM 39.3993 -94.4896 261° West 404 465 38,000  Level FlightAware ADS-B
09:44AM 39.3900 -94.5629 261° West 405 466 38,000  Level FlightAware ADS-B
09:45AM 39.3808 -94.6350 261° West 406 467 38,000  Level FlightAware ADS-B
09:45AM 39.3712 -94.7098 261° West 407 468 38,000  Level FlightAware ADS-B
09:46AM 39.3615 -94.7850 261° West 407 468 38,000  Level FlightAware ADS-B
09:46AM 39.3521 -94.8573 261° West 408 470 38,000  Level FlightAware ADS-B
09:47AM 39.3425 -94.9319 260° West 408 470 38,000  Level FlightAware ADS-B
09:48AM 39.3329 -95.0040 260° West 408 470 38,000  Level FlightAware ADS-B
09:48AM 39.3233 -95.0778 260° West 408 470 38,000  Level FlightAware ADS-B
09:49AM 39.3136 -95.1498 260° West 408 470 38,000  Level FlightAware ADS-B
09:49AM 39.3041 -95.2218 260° West 408 470 38,000  Level FlightAware ADS-B
09:50AM 39.2944 -95.2944 260° West 409 471 38,000  Level FlightAware ADS-B
09:50AM 39.2846 -95.3668 260° West 409 471 38,000  Level FlightAware ADS-B
09:51AM 39.2744 -95.4428 260° West 409 471 38,000  Level FlightAware ADS-B
09:51AM 39.2642 -95.5163 260° West 409 471 38,000  Level FlightAware ADS-B
09:51AM 39.2623 -95.5306 260° West 409 471 38,000  Level FlightAware ADS-B
09:52AM 39.2540 -95.5907 260° West 409 471 38,000  Level FlightAware ADS-B
09:52AM 39.2515 -95.6083 260° West 410 472 38,000  Level FlightAware ADS-B
09:52AM 39.2440 -95.6637 260° West 410 472 38,000  Level FlightAware ADS-B
09:52AM 39.2419 -95.6786 260° West 410 472 38,000  Level FlightAware ADS-B
09:53AM 39.2338 -95.7366 260° West 410 472 38,000  Level FlightAware ADS-B
09:53AM 39.2285 -95.7745 260° West 411 473 38,000  Level FlightAware ADS-B
09:53AM 39.2238 -95.8093 260° West 411 473 38,000  Level FlightAware ADS-B
09:53AM 39.2192 -95.8408 260° West 411 473 38,000  Level FlightAware ADS-B
09:54AM 39.2102 -95.9056 260° West 411 473 38,000  Level FlightAware ADS-B
09:54AM 39.1997 -95.9800 260° West 411 473 38,000  Level FlightAware ADS-B
09:55AM 39.1892 -96.0540 259° West 411 473 38,000  Level FlightAware ADS-B
09:55AM 39.1788 -96.1260 260° West 410 472 38,000  Level FlightAware ADS-B
09:56AM 39.1685 -96.1979 259° West 410 472 38,000  Level FlightAware ADS-B
09:56AM 39.1580 -96.2703 259° West 410 472 38,000  Level FlightAware ADS-B
09:57AM 39.1476 -96.3423 259° West 410 472 38,000  Level FlightAware ADS-B
09:57AM 39.1398 -96.3957 259° West 410 472 38,000  Level FlightAware ADS-B
09:57AM 39.1368 -96.4160 259° West 410 472 38,000  Level FlightAware ADS-B
09:58AM 39.1262 -96.4881 259° West 410 472 38,000  Level FlightAware ADS-B
09:58AM 39.1255 -96.4920 259° West 410 472 38,000  Level FlightAware ADS-B
09:58AM 39.1152 -96.5619 259° West 410 472 38,000  Level FlightAware ADS-B
09:59AM 39.1041 -96.6367 259° West 410 472 38,000  Level FlightAware ADS-B
09:59AM 39.0931 -96.7106 259° West 410 472 38,000  Level FlightAware ADS-B
10:00AM 39.0742 -96.8367 259° West 411 473 38,000  Level FlightAware ADS-B
10:01AM 39.0607 -96.9259 259° West 411 473 38,000  Level FlightAware ADS-B
10:01AM 39.0495 -96.9989 259° West 412 474 38,000  Level FlightAware ADS-B
10:02AM 39.0383 -97.0713 259° West 413 475 38,000  Level FlightAware ADS-B
10:02AM 39.0270 -97.1445 259° West 414 476 38,000  Level FlightAware ADS-B
10:03AM 39.0158 -97.2175 259° West 415 478 38,000  Level FlightAware ADS-B
10:03AM 39.0043 -97.2910 259° West 415 478 38,000  Level FlightAware ADS-B
10:04AM 38.9928 -97.3643 259° West 416 479 38,000  Level FlightAware ADS-B
10:04AM 38.9813 -97.4371 259° West 416 479 38,000  Level FlightAware ADS-B
10:05AM 38.9698 -97.5109 259° West 417 480 38,000  Level FlightAware ADS-B
10:05AM 38.9581 -97.5836 258° West 419 482 38,000  Level FlightAware ADS-B
10:07AM 38.9293 -97.7639 258° West 419 482 38,000  Level FlightAware ADS-B
10:07AM 38.9173 -97.8374 258° West 420 483 38,000  Level FlightAware ADS-B
10:08AM 38.9054 -97.9111 258° West 419 482 38,000  Level FlightAware ADS-B
10:08AM 38.8932 -97.9858 258° West 418 481 38,000  Level FlightAware ADS-B
10:09AM 38.8811 -98.0592 258° West 418 481 38,000  Level FlightAware ADS-B
10:09AM 38.8692 -98.1324 258° West 417 480 38,000  Level FlightAware ADS-B
10:10AM 38.8572 -98.2052 258° West 416 479 38,000  Level FlightAware ADS-B
10:10AM 38.8449 -98.2781 258° West 415 478 38,000  Level FlightAware ADS-B
10:11AM 38.8329 -98.3500 258° West 414 476 38,000  Level FlightAware ADS-B
10:12AM 38.7969 -98.4783 258° West 416 479 38,000  Level Kansas City Center
10:13AM 38.7728 -98.6217 258° West 415 478 38,000  Level Kansas City Center
10:14AM 38.7483 -98.7647 258° West 415 478 38,000  Level Kansas City Center
10:15AM 38.7250 -98.9061 258° West 413 475 38,000  Level Kansas City Center
10:16AM 38.6992 -99.0492 257° West 413 475 38,000  Level Kansas City Center
10:17AM 38.6747 -99.1914 258° West 412 474 38,000  Level Kansas City Center
10:18AM 38.6522 -99.3325 259° West 410 472 38,000  Level Kansas City Center
10:19AM 38.6208 -99.5039 257° West 410 472 38,000  Level Kansas City Center
10:20AM 38.5950 -99.6500 257° West 410 472 38,000  Level Kansas City Center
10:21AM 38.5714 -99.7858 258° West 410 472 38,000  Level Kansas City Center
10:22AM 38.5439 -99.9417 257° West 409 471 38,000  Level Kansas City Center
10:23AM 38.5186 -100.0761 257° West 409 471 38,000  Level Kansas City Center
10:24AM 38.4939 -100.2100 257° West 408 470 38,000  Level Kansas City Center
10:25AM 38.4650 -100.3656 257° West 408 470 38,000  Level Kansas City Center
10:26AM 38.4403 -100.4997 257° West 408 470 38,000  Level Kansas City Center
10:27AM 38.4114 -100.6556 257° West 407 468 38,000  Level Kansas City Center
10:28AM 38.3864 -100.7883 257° West 407 468 38,000  Level Kansas City Center
10:29AM 38.3556 -100.9450 256° West 407 468 38,000  Level Kansas City Center
10:30AM 38.3308 -101.0758 256° West 404 465 38,000  Level Kansas City Center
10:31AM 38.3139 -101.1625 256° West 403 464 38,000  Level Denver Center
10:32AM 38.2886 -101.2944 256° West 403 464 38,000  Level Denver Center
10:33AM 38.2589 -101.4483 256° West 403 464 38,000  Level Denver Center
10:34AM 38.2336 -101.5803 256° West 403 464 38,000  Level Denver Center
10:35AM 38.2031 -101.7344 256° West 403 464 38,000  Level Denver Center
10:36AM 38.1767 -101.8678 256° West 404 465 38,000  Level Denver Center
10:42AM 38.0141 -102.7078 255° West 400 460 38,000  Level FlightAware ADS-B (KEIK)
10:43AM 37.9904 -102.8222 255° West 399 459 38,000  Level FlightAware ADS-B (KEIK)
10:43AM 37.9742 -102.9016 255° West 399 459 38,000  Level FlightAware ADS-B (KEIK)
10:44AM 37.9538 -102.9989 255° West 400 460 38,000  Level FlightAware ADS-B (KEIK)
10:45AM 37.9343 -103.0924 255° West 399 459 38,000  Level FlightAware ADS-B (KEIK)
10:46AM 37.9015 -103.2483 255° West 398 458 38,000  Level FlightAware ADS-B (KEIK)
10:47AM 37.8813 -103.3447 255° West 397 457 38,000  Level FlightAware ADS-B (KEIK)
10:47AM 37.8669 -103.4127 255° West 397 457 38,000  Level FlightAware ADS-B (KEIK)
10:48AM 37.8493 -103.4956 255° West 397 457 38,000  Level FlightAware ADS-B (KEIK)
10:49AM 37.8256 -103.6065 255° West 398 458 38,000  Level FlightAware ADS-B (KEIK)
10:49AM 37.8070 -103.6950 255° West 398 458 38,000  Level FlightAware ADS-B (KEIK)
10:50AM 37.7996 -103.7290 255° West 396 456 38,000  Level FlightAware ADS-B (KEIK)
10:50AM 37.7716 -103.8602 255° West 394 453 38,000  Level FlightAware ADS-B (KEIK)
10:52AM 37.7365 -104.0224 255° West 393 452 38,000  Level FlightAware ADS-B (KEIK)
10:52AM 37.7206 -104.0962 255° West 393 452 38,000  Level FlightAware ADS-B (KEIK)
10:53AM 37.6906 -104.2349 255° West 392 451 38,000  Level FlightAware ADS-B (KEIK)
10:54AM 37.6637 -104.3578 255° West 389 448 38,000 60 Level FlightAware ADS-B (KEIK)
10:55AM 37.6489 -104.4248 255° West 386 444 38,100  Climbing FlightAware ADS-B (KEIK)
10:56AM 37.6184 -104.5635 255° West 389 448 38,000 -120 Descending FlightAware ADS-B (KEIK)
10:56AM 37.6058 -104.6206 254° West 387 445 38,000  Level FlightAware ADS-B (KEIK)
10:57AM 37.5851 -104.7145 254° West 386 444 38,000  Level FlightAware ADS-B (KEIK)
10:58AM 37.5625 -104.8158 254° West 387 445 38,000  Level FlightAware ADS-B (KEIK)
10:58AM 37.5444 -104.8972 254° West 389 448 38,000  Level FlightAware ADS-B (KEIK)
11:00AM 37.5045 -105.0742 254° West 394 453 38,000  Level FlightAware ADS-B (KEIK)
11:00AM 37.4887 -105.1617 258° West 397 457 38,000  Level FlightAware ADS-B (KEIK)
11:01AM 37.4729 -105.2537 258° West 399 459 38,000  Level FlightAware ADS-B
11:02AM 37.4523 -105.3712 257° West 401 461 38,000  Level FlightAware ADS-B (KEIK)
11:03AM 37.4251 -105.5236 257° West 399 459 38,000  Level FlightAware ADS-B (KEIK)
11:04AM 37.4045 -105.6377 257° West 396 456 38,000  Level FlightAware ADS-B (KEIK)
11:05AM 37.4020 -105.6515 257° West 393 452 38,000  Level FlightAware ADS-B (KMTJ)
11:05AM 37.3733 -105.8089 257° West 390 449 38,000  Level FlightAware ADS-B (KMTJ)
11:06AM 37.3528 -105.9213 257° West 385 443 38,000  Level FlightAware ADS-B (KMTJ)
11:06AM 37.3424 -105.9775 257° West 383 441 38,000  Level FlightAware ADS-B (KMTJ)
11:07AM 37.3231 -106.0821 257° West 379 436 38,000  Level FlightAware ADS-B
11:08AM 37.3092 -106.1572 257° West 379 436 38,000  Level FlightAware ADS-B (KMTJ)
11:08AM 37.2970 -106.2229 257° West 378 435 38,000  Level FlightAware ADS-B (KMTJ)
11:09AM 37.2853 -106.2863 257° West 377 434 38,000  Level FlightAware ADS-B (KMTJ)
11:09AM 37.2738 -106.3463 257° West 378 435 38,000  Level FlightAware ADS-B (KMTJ)
11:10AM 37.2612 -106.4136 257° West 380 437 38,000  Level FlightAware ADS-B (KMTJ)
11:10AM 37.2491 -106.4773 257° West 382 440 38,000  Level FlightAware ADS-B (KMTJ)
11:11AM 37.2286 -106.5857 257° West 384 442 38,000  Level FlightAware ADS-B (KMTJ)
11:12AM 37.2150 -106.6572 257° West 387 445 38,000  Level FlightAware ADS-B
11:12AM 37.1997 -106.7374 257° West 388 447 38,000  Level FlightAware ADS-B
11:13AM 37.1881 -106.7973 256° West 388 447 38,000  Level FlightAware ADS-B (KMTJ)
11:13AM 37.1758 -106.8614 256° West 388 447 38,000  Level FlightAware ADS-B (KMTJ)
11:14AM 37.1623 -106.9307 257° West 386 444 38,000  Level FlightAware ADS-B
11:14AM 37.1477 -107.0057 256° West 386 444 38,000  Level FlightAware ADS-B
11:15AM 37.1326 -107.0827 256° West 386 444 38,000  Level FlightAware ADS-B
11:15AM 37.1193 -107.1502 256° West 385 443 38,000  Level FlightAware ADS-B (KMTJ)
11:16AM 37.1069 -107.2143 256° West 384 442 38,000  Level FlightAware ADS-B (KMTJ)
11:17AM 37.0922 -107.2888 256° West 384 442 38,000  Level FlightAware ADS-B
11:17AM 37.0756 -107.3722 256° West 384 442 38,000  Level FlightAware ADS-B
11:18AM 37.0594 -107.4524 256° West 383 441 38,000  Level FlightAware ADS-B (KMTJ)
11:18AM 37.0420 -107.5394 256° West 383 441 38,000  Level FlightAware ADS-B (KMTJ)
11:19AM 37.0275 -107.6111 256° West 382 440 38,000  Level FlightAware ADS-B
11:20AM 37.0141 -107.6772 256° West 382 440 38,000  Level FlightAware ADS-B
11:20AM 37.0008 -107.7423 256° West 381 438 38,000  Level FlightAware ADS-B (KMTJ)
11:21AM 36.9818 -107.8353 256° West 381 438 38,000  Level FlightAware ADS-B
11:21AM 36.9689 -107.8985 256° West 381 438 38,000  Level FlightAware ADS-B
11:22AM 36.9513 -107.9836 255° West 383 441 38,000  Level FlightAware ADS-B (KMTJ)
11:23AM 36.9351 -108.0619 255° West 383 441 38,000  Level FlightAware ADS-B
11:23AM 36.9191 -108.1382 256° West 382 440 38,000  Level FlightAware ADS-B
11:24AM 36.9063 -108.1997 256° West 383 441 38,000  Level FlightAware ADS-B
11:24AM 36.8927 -108.2645 255° West 382 440 38,000  Level FlightAware ADS-B (KMTJ)
11:25AM 36.8798 -108.3260 255° West 382 440 38,000  Level FlightAware ADS-B (KMTJ)
11:25AM 36.8625 -108.4078 255° West 382 440 38,000  Level FlightAware ADS-B
11:26AM 36.8472 -108.4796 255° West 381 438 38,000  Level FlightAware ADS-B
11:26AM 36.8330 -108.5473 255° West 383 441 38,000  Level FlightAware ADS-B
11:27AM 36.8187 -108.6142 255° West 383 441 38,000  Level FlightAware ADS-B
11:28AM 36.7975 -108.7130 255° West 386 444 38,000  Level FlightAware ADS-B
11:28AM 36.7792 -108.7970 255° West 387 445 38,000  Level FlightAware ADS-B (KMTJ)
11:29AM 36.7648 -108.8636 255° West 387 445 38,000  Level FlightAware ADS-B (KMTJ)
11:29AM 36.7512 -108.9268 255° West 386 444 38,000  Level FlightAware ADS-B (KMTJ)
11:30AM 36.7379 -108.9886 255° West 387 445 38,000  Level FlightAware ADS-B (KMTJ)
11:30AM 36.7234 -109.0542 255° West 387 445 38,000  Level FlightAware ADS-B (KMTJ)
11:31AM 36.7042 -109.1410 255° West 387 445 38,000  Level FlightAware ADS-B (KMTJ)
11:32AM 36.6896 -109.2073 255° West 388 447 38,000  Level FlightAware ADS-B (KMTJ)
11:32AM 36.6764 -109.2672 255° West 388 447 38,000  Level FlightAware ADS-B (KMTJ)
11:33AM 36.6613 -109.3352 255° West 388 447 38,000  Level FlightAware ADS-B (KMTJ)
11:33AM 36.6472 -109.3987 255° West 388 447 38,000  Level FlightAware ADS-B (KMTJ)
11:34AM 36.6223 -109.5101 254° West 387 445 38,000  Level FlightAware ADS-B
11:35AM 36.5925 -109.6431 255° West 388 447 38,000  Level FlightAware ADS-B
11:36AM 36.5669 -109.7563 254° West 390 449 38,000  Level FlightAware ADS-B (KMTJ)
11:37AM 36.5334 -109.9035 254° West 390 449 38,000  Level FlightAware ADS-B
11:38AM 36.5032 -110.0352 254° West 389 448 38,000  Level FlightAware ADS-B
11:39AM 36.4789 -110.1418 254° West 389 448 38,000  Level FlightAware ADS-B (KMTJ)
11:40AM 36.4699 -110.1804 254° West 388 447 38,000  Level FlightAware ADS-B
11:41AM 36.4117 -110.4311 254° West 387 445 38,000  Level FlightAware ADS-B
11:42AM 36.3824 -110.5562 254° West 386 444 38,000  Level FlightAware ADS-B
11:43AM 36.3574 -110.6621 254° West 386 444 38,000  Level FlightAware ADS-B
11:44AM 36.3269 -110.7919 254° West 386 444 38,000  Level FlightAware ADS-B (KMTJ)
11:44AM 36.3111 -110.8585 254° West 385 443 38,000  Level FlightAware ADS-B (KMTJ)
11:46AM 36.2683 -111.0379 254° West 387 445 38,000  Level FlightAware ADS-B
11:47AM 36.2249 -111.2184 254° West 388 447 38,000  Level FlightAware ADS-B
11:48AM 36.1887 -111.3640 249° West 389 448 38,000  Level FlightAware ADS-B
11:52AM 36.0558 -111.7643 248° West 389 448 38,000  Level FlightAware ADS-B
11:53AM 36.0170 -111.8806 248° West 387 445 38,000  Level FlightAware ADS-B
11:54AM 35.9732 -112.0117 248° West 387 445 38,000  Level FlightAware ADS-B
11:55AM 35.9299 -112.1404 248° West 386 444 38,000  Level FlightAware ADS-B
11:56AM 35.8897 -112.2601 248° West 387 445 38,000  Level FlightAware ADS-B
12:00PM 36.0558 -111.7643 247° West 392 451 38,000  Level FlightAware ADS-B (KPRC)
12:01PM 35.6733 -112.8458 247° West 391 450 38,000  Level Los Angeles Center
12:02PM 35.6306 -112.9689 247° West 391 450 38,000  Level Los Angeles Center
12:03PM 35.5878 -113.0925 247° West 391 450 38,000  Level Los Angeles Center
12:04PM 35.5447 -113.2175 247° West 392 451 38,000  Level Los Angeles Center
12:05PM 35.5006 -113.3467 247° West 395 455 38,000  Level Los Angeles Center
12:06PM 35.4572 -113.4697 247° West 396 456 38,000  Level Los Angeles Center
12:07PM 35.4056 -113.6178 247° West 396 456 38,000  Level Los Angeles Center
12:08PM 35.3619 -113.7414 247° West 396 456 38,000  Level Los Angeles Center
12:09PM 35.3178 -113.8644 246° West 396 456 38,000  Level Los Angeles Center
12:10PM 35.2736 -113.9886 246° West 396 456 38,000  Level Los Angeles Center
12:11PM 35.2292 -114.1128 246° West 396 456 38,000  Level Los Angeles Center
12:12PM 35.1850 -114.2364 246° West 396 456 38,000  Level Los Angeles Center
12:13PM 35.1317 -114.3881 247° West 399 459 38,000  Level Los Angeles Center
12:14PM 35.0867 -114.5122 246° West 400 460 38,000  Level Los Angeles Center
12:15PM 35.0406 -114.6364 246° West 401 461 38,000  Level Los Angeles Center
12:16PM 34.9956 -114.7617 246° West 401 461 38,000  Level Los Angeles Center
12:17PM 34.9494 -114.8869 246° West 402 463 38,000  Level Los Angeles Center
12:18PM 34.9036 -115.0106 246° West 402 463 38,000  Level Los Angeles Center
12:24PM 34.6767 -115.6811 246° West 399 459 38,000  Level FlightAware ADS-B
12:25PM 34.6242 -115.8213 246° West 399 459 38,000  Level FlightAware ADS-B
12:25PM 34.5976 -115.8928 246° West 396 456 38,000 -900 Level FlightAware ADS-B (KBNG)
12:26PM 34.5667 -115.9755 246° West 403 464 36,900 -1,380 Descending FlightAware ADS-B
12:26PM 34.5488 -116.0230 246° West 400 460 36,300 -1,740 Descending FlightAware ADS-B
12:27PM 34.5090 -116.1290 246° West 387 445 34,700 -2,040 Descending FlightAware ADS-B
12:28PM 34.4783 -116.2101 245° Southwest 382 440 33,600 -1,740 Descending FlightAware ADS-B (KBNG)
12:28PM 34.4580 -116.2639 245° Southwest 377 434 32,600 -1,980 Descending FlightAware ADS-B (KBNG)
12:29PM 34.4321 -116.3324 245° Southwest 377 434 31,500 -2,220 Descending FlightAware ADS-B (KBNG)
12:30PM 34.3713 -116.4927 245° Southwest 408 470 28,500 -2,280 Descending FlightAware ADS-B (KBNG)
12:31PM 34.3428 -116.5672 245° Southwest 418 481 27,000 -2,160 Descending FlightAware ADS-B (KBNG)
12:31PM 34.3169 -116.6350 245° Southwest 409 471 25,900 -1,920 Descending FlightAware ADS-B (KBNG)
12:32PM 34.2846 -116.7195 245° Southwest 403 464 24,800 -1,860 Descending FlightAware ADS-B (KBNG)
12:33PM 34.2442 -116.8247 245° Southwest 392 451 23,200 -1,860 Descending FlightAware ADS-B
12:33PM 34.2206 -116.8860 245° Southwest 373 429 22,200 -1,860 Descending FlightAware ADS-B (KBNG)
12:35PM 34.1717 -117.0126 245° Southwest 361 415 20,200 -1,620 Descending FlightAware ADS-B (KBNG)
12:35PM 34.1659 -117.0276 245° Southwest 360 414 19,500 -1,380 Descending FlightAware ADS-B (KBNG)
12:36PM 34.1214 -117.1381 242° Southwest 358 412 18,500 -1,740 Descending FlightAware ADS-B
12:36PM 34.0944 -117.1987 242° Southwest 353 406 17,500 -1,920 Descending FlightAware ADS-B (KBNG)
12:37PM 34.0791 -117.2349 251° West 348 400 16,900 -2,160 Descending FlightAware ADS-B
12:37PM 34.0737 -117.2588 263° West 347 399 16,300 -1,800 Descending FlightAware ADS-B (KBNG)
12:37PM 34.0676 -117.3237 265° West 348 400 15,500 -1,560 Descending FlightAware ADS-B
12:38PM 34.0615 -117.4010 264° West 340 391 14,400 -1,920 Descending FlightAware ADS-B
12:39PM 34.0569 -117.4531 264° West 319 367 13,300 -1,920 Descending FlightAware ADS-B
12:39PM 34.0524 -117.5027 264° West 301 346 12,500 -1,680 Descending FlightAware ADS-B
12:40PM 34.0470 -117.5626 263° West 286 329 11,400 -1,680 Descending FlightAware ADS-B
12:40PM 34.0421 -117.6122 263° West 270 311 10,600 -1,260 Descending FlightAware ADS-B
12:41PM 34.0367 -117.6678 263° West 252 290 10,000 -840 Descending FlightAware ADS-B
12:41PM 34.0355 -117.6788 264° West 301 346 10,000 -300 Level FlightAware ADS-B (OPMT / MUX)
12:41PM 34.0339 -117.6945 263° West 254 292 9,900 -780 Descending FlightAware ADS-B
12:41PM 34.0323 -117.7108 264° West 256 295 9,700 -1,380 Descending FlightAware ADS-B (OPMT / MUX)
12:42PM 34.0305 -117.7300 263° West 254 292 9,400 -1,500 Descending FlightAware ADS-B
12:42PM 34.0279 -117.7549 263° West 243 280 8,900 -1,980 Descending FlightAware ADS-B (KSNA)
12:42PM 34.0258 -117.7763 263° West 226 260 8,300 -1,620 Descending FlightAware ADS-B (KSNA)
12:42PM 34.0250 -117.7855 264° West 226 260 8,300 -840 Level FlightAware ADS-B (OPMT / MUX)
12:43PM 34.0233 -117.8035 264° West 213 245 8,000 -840 Descending FlightAware ADS-B
12:43PM 34.0224 -117.8127 264° West 226 260 8,000 -300 Level FlightAware ADS-B (OPMT / MUX)
12:43PM 34.0210 -117.8282 265° West 209 241 7,900 -600 Descending FlightAware ADS-B (OPMT / MUX)
12:43PM 34.0197 -117.8485 266° West 207 238 7,700 -720 Descending FlightAware ADS-B (OPMT / MUX)
12:43PM 34.0198 -117.8459 266° West 208 239 7,700 -1,320 Level FlightAware ADS-B
12:43PM 34.0187 -117.8657 266° West 204 235 7,400 -900 Descending FlightAware ADS-B (OPMT / MUX)
12:44PM 34.0181 -117.8736 266° West 204 235 7,400 -840 Level FlightAware ADS-B
12:44PM 34.0176 -117.8825 266° West 201 231 7,200 -1,140 Descending FlightAware ADS-B (OPMT / MUX)
12:44PM 34.0167 -117.8947 265° West 199 229 7,000 -960 Descending FlightAware ADS-B
12:44PM 34.0159 -117.9071 265° West 196 226 6,800 -1,260 Descending FlightAware ADS-B (OPMT / MUX)
12:44PM 34.0142 -117.9249 264° West 196 226 6,500 -1,680 Descending FlightAware ADS-B (OPMT / MUX)
12:44PM 34.0142 -117.9261 263° West 198 228 6,300 -1,500 Descending FlightAware ADS-B (KSNA)
12:45PM 34.0124 -117.9423 263° West 198 228 6,100 -960 Descending FlightAware ADS-B (OPMT / MUX)
12:45PM 34.0118 -117.9491 262° West 200 230 6,000 -1,200 Descending FlightAware ADS-B
12:45PM 34.0109 -117.9558 262° West 199 229 5,800 -1,080 Descending FlightAware ADS-B (OPMT / MUX)
12:45PM 34.0087 -117.9744 263° West 197 227 5,600 -840 Descending FlightAware ADS-B (OPMT / MUX)
12:45PM 34.0073 -117.9873 263° West 194 223 5,400 -720 Descending FlightAware ADS-B (OPMT / MUX)
12:46PM 34.0052 -118.0066 264° West 190 219 5,200 -600 Descending FlightAware ADS-B (OPMT / MUX)
12:46PM 34.0054 -118.0056 263° West 191 220 5,200 -780 Level FlightAware ADS-B (KSNA)
12:46PM 34.0032 -118.0284 264° West 188 216 5,000 -660 Descending FlightAware ADS-B (OPMT / MUX)
12:46PM 34.0028 -118.0332 263° West 186 214 5,000  Level FlightAware ADS-B (KSNA)
12:46PM 34.0011 -118.0493 264° West 182 209 5,000  Level FlightAware ADS-B (OPMT / MUX)
12:47PM 33.9997 -118.0636 264° West 183 211 5,000  Level FlightAware ADS-B (OPMT / MUX)
12:47PM 33.9987 -118.0739 263° West 190 219 5,000 -300 Level FlightAware ADS-B (KSNA)
12:47PM 33.9972 -118.0901 264° West 198 228 4,900 -720 Descending FlightAware ADS-B (OPMT / MUX)
12:47PM 33.9975 -118.0855 264° West 198 228 4,800 -1,200 Descending FlightAware ADS-B (KSNA)
12:47PM 33.9956 -118.1067 264° West 194 223 4,600 -900 Descending FlightAware ADS-B (OPMT / MUX)
12:47PM 33.9941 -118.1216 264° West 187 215 4,400 -540 Descending FlightAware ADS-B (OPMT / MUX)
12:48PM 33.9934 -118.1289 264° West 186 214 4,400 -840 Level FlightAware ADS-B
12:48PM 33.9926 -118.1374 264° West 184 212 4,200 -1,140 Descending FlightAware ADS-B (OPMT / MUX)
12:48PM 33.9912 -118.1531 264° West 192 221 4,000 -1,200 Descending FlightAware ADS-B (OPMT / MUX)
12:49PM 33.9857 -118.2053 263° West 217 250 3,000 -1,080 Descending FlightAware ADS-B (OPMT / MUX)
12:49PM 33.9853 -118.2089 263° West 218 251 3,100 -1,140 Climbing FlightAware ADS-B
12:49PM 33.9838 -118.2239 264° West 218 251 2,700 -1,560 Descending FlightAware ADS-B (OPMT / MUX)
12:49PM 33.9819 -118.2444 264° West 207 238 2,400 -1,020 Descending FlightAware ADS-B (OPMT / MUX)
12:49PM 33.9804 -118.2590 264° West 201 231 2,200 -960 Descending FlightAware ADS-B (OPMT / MUX)
12:50PM 33.9463 -118.2923 263° West 194 223 1,700 -780 Descending FlightAware ADS-B
12:52PM 33.9372 -118.3843 263° West 104 120 200 -720 Descending FlightAware ADS-B